Terminal Aerodrome Forecast
Issued by NWS Cleveland, OH

Home | Current Version | Previous Version | Text Only | Print | Product List | Glossary Off
Versions: 1 2 3 4 5 6 7 8 9 10 11 12 13 14 15 16 17 18 19 20 21 22 23 24 25

000
FTUS41 KCLE 242300
TAFMFD
TAF
KMFD 242329Z 2500/2524 24010KT 3SM BR OVC006
     FM250200 27009KT P6SM BKN015 BKN100
     FM250700 26008KT 6SM HZ OVC008
     FM251200 25006KT 3SM -SN OVC012
     FM251300 VRB04KT 1 1/2SM -SN BR OVC008
     FM251700 04008KT 1SM -SN BR OVC006=

USA.gov is the U.S. government's official web portal to all federal, state and local government web resources and services.